SKCC/CUC METAR and TAF weather

Enter ICAO airport designator
Station Type Date Time Source
SKCC METAR 2019/06/17 15:00 UTC NOAA

SKCC 171500Z 18017KT 9999 VCSH SCT020 BKN090 28/19 A3002 RMK VCSH SW


Station Type Date Time Source
SKCC Decoded METAR 2019/06/17 15:00 UTC NOAA

Cucuta / Camilo Daza, Colombia (SKCC) 07-56N 072-31W 317M
Jun 17, 2019 - 11:00 AM EDT / 2019.06.17 1500 UTC
Wind: from the S (180 degrees) at 20 MPH (17 KT):0
Visibility: greater than 7 mile(s):0
Sky conditions: mostly cloudy
Weather: showers in the vicinity
Temperature: 82 F (28 C)
Dew Point: 66 F (19 C)
Relative Humidity: 58%
Pressure (altimeter): 30.02 in. Hg (1016 hPa)
ob: SKCC 171500Z 18017KT 9999 VCSH SCT020 BKN090 28/19 A3002 RMK VCSH SW
cycle: 15

Station Type Date Time Source
SKCC TAF 2019/06/17 12:33 UTC NOAA

TAF SKCC 171030Z 1712/1812 15015KT 9999 SCT023 SCT090 TX34/1719Z TN24/1811Z

Example: see airport list